createdAt,value
2022-08-24T00:02:06.057Z,100.00
2022-08-24T00:05:12.775Z,100.00
2022-08-24T00:08:18.994Z,100.00
2022-08-24T00:11:22.214Z,100.00
2022-08-24T00:14:25.189Z,100.00
2022-08-24T00:17:27.656Z,100.00
2022-08-24T00:20:30.527Z,100.00
2022-08-24T00:23:33.473Z,100.00
2022-08-24T00:26:35.828Z,100.00
2022-08-24T00:29:38.811Z,100.00
2022-08-24T00:32:42.167Z,100.00
2022-08-24T00:35:44.698Z,100.00
2022-08-24T00:38:46.796Z,100.00
2022-08-24T00:41:51.295Z,100.00
2022-08-24T00:44:53.407Z,100.00
2022-08-24T00:48:03.200Z,100.00
2022-08-24T00:51:20.232Z,100.00
2022-08-24T00:54:26.977Z,100.00
2022-08-24T00:57:33.739Z,100.00
2022-08-24T01:00:41.944Z,100.00
2022-08-24T01:03:49.957Z,100.00
2022-08-24T01:06:53.805Z,100.00
2022-08-24T01:10:00.302Z,100.00
2022-08-24T01:13:06.851Z,100.00
2022-08-24T01:16:09.938Z,100.00
2022-08-24T01:19:30.558Z,100.00
2022-08-24T01:23:11.087Z,100.00
2022-08-24T01:26:22.615Z,100.00
2022-08-24T01:29:28.781Z,100.00
2022-08-24T01:32:33.434Z,100.00
2022-08-24T01:35:38.921Z,100.00
2022-08-24T01:38:43.279Z,100.00
2022-08-24T01:41:45.558Z,100.00
2022-08-24T01:44:48.247Z,100.00
2022-08-24T01:47:50.659Z,100.00
2022-08-24T01:50:53.305Z,100.00
2022-08-24T01:53:56.712Z,100.00
2022-08-24T01:57:00.363Z,100.00
2022-08-24T02:00:06.632Z,100.00
2022-08-24T02:03:14.908Z,100.00
2022-08-24T02:06:19.838Z,100.00
2022-08-24T02:09:22.284Z,100.00
2022-08-24T02:12:27.412Z,100.00
2022-08-24T02:15:39.927Z,100.00
2022-08-24T02:18:43.107Z,100.00
2022-08-24T02:21:46.382Z,100.00
2022-08-24T02:24:48.566Z,100.00
2022-08-24T02:27:51.675Z,100.00
2022-08-24T02:30:53.849Z,100.00
2022-08-24T02:33:56.615Z,100.00
2022-08-24T02:36:59.880Z,100.00
2022-08-24T02:40:04.679Z,100.00
2022-08-24T02:43:08.269Z,100.00
2022-08-24T02:46:18.402Z,100.00
2022-08-24T02:49:22.982Z,100.00
2022-08-24T02:52:25.579Z,100.00
2022-08-24T02:55:27.975Z,100.00
2022-08-24T02:58:30.731Z,100.00
2022-08-24T03:01:33.203Z,100.00
2022-08-24T03:04:35.633Z,100.00
2022-08-24T03:07:38.586Z,100.00
2022-08-24T03:10:41.121Z,100.00
2022-08-24T03:13:43.549Z,100.00
2022-08-24T03:16:45.961Z,100.00
2022-08-24T03:19:48.272Z,100.00
2022-08-24T03:22:51.636Z,100.00
2022-08-24T03:25:54.488Z,100.00
2022-08-24T03:28:57.018Z,100.00
2022-08-24T03:32:01.568Z,100.00
2022-08-24T03:35:05.390Z,100.00
2022-08-24T03:38:07.778Z,100.00
2022-08-24T03:41:11.139Z,100.00
2022-08-24T03:44:13.301Z,100.00
2022-08-24T03:47:15.848Z,100.00
2022-08-24T03:50:18.515Z,100.00
2022-08-24T03:53:21.072Z,100.00
2022-08-24T03:56:23.423Z,100.00
2022-08-24T03:59:26.038Z,100.00
2022-08-24T04:02:32.796Z,100.00
2022-08-24T04:05:37.254Z,100.00
2022-08-24T04:08:43.042Z,100.00
2022-08-24T04:11:46.028Z,100.00
2022-08-24T04:14:52.086Z,100.00
2022-08-24T04:17:54.501Z,100.00
2022-08-24T04:20:56.918Z,100.00
2022-08-24T04:24:00.574Z,100.00
2022-08-24T04:27:02.887Z,100.00
2022-08-24T04:30:06.565Z,100.00
2022-08-24T04:33:12.795Z,100.00
2022-08-24T04:36:16.503Z,100.00
2022-08-24T04:39:18.833Z,100.00
2022-08-24T04:42:22.315Z,100.00
2022-08-24T04:45:26.450Z,100.00
2022-08-24T04:48:29.562Z,100.00
2022-08-24T04:51:36.368Z,100.00
2022-08-24T04:54:39.548Z,100.00
2022-08-24T04:57:41.995Z,100.00
2022-08-24T05:00:45.617Z,100.00
2022-08-24T05:03:50.179Z,100.00
2022-08-24T05:06:53.241Z,100.00
2022-08-24T05:09:56.613Z,100.00
2022-08-24T05:13:01.472Z,100.00
2022-08-24T05:16:14.797Z,100.00
2022-08-24T05:19:17.288Z,100.00
2022-08-24T05:22:19.524Z,100.00
2022-08-24T05:25:22.398Z,100.00
2022-08-24T05:28:24.501Z,100.00
2022-08-24T05:31:32.242Z,100.00
2022-08-24T05:34:35.063Z,100.00
2022-08-24T05:37:39.454Z,100.00
2022-08-24T05:40:44.556Z,100.00
2022-08-24T05:43:47.618Z,100.00
2022-08-24T05:46:50.092Z,100.00
2022-08-24T05:49:53.658Z,100.00
2022-08-24T05:52:55.884Z,100.00
2022-08-24T05:55:58.342Z,100.00
2022-08-24T05:59:00.685Z,100.00
2022-08-24T06:02:03.996Z,100.00
2022-08-24T06:05:06.724Z,100.00
2022-08-24T06:08:10.472Z,100.00
2022-08-24T06:11:30.243Z,100.00
2022-08-24T06:14:34.537Z,100.00
2022-08-24T06:17:38.052Z,97.92
2022-08-24T06:20:42.329Z,98.57
2022-08-24T06:23:45.754Z,100.00
2022-08-24T06:27:06.611Z,99.53
2022-08-24T06:30:10.182Z,96.55
2022-08-24T06:33:16.094Z,95.55
2022-08-24T06:36:18.711Z,93.81
2022-08-24T06:39:24.856Z,91.29
2022-08-24T06:42:29.376Z,89.27
2022-08-24T06:45:34.328Z,90.52
2022-08-24T06:48:36.879Z,87.77
2022-08-24T06:51:40.438Z,88.26
2022-08-24T06:54:43.141Z,88.59
2022-08-24T06:57:49.088Z,89.77
2022-08-24T07:00:57.088Z,87.73
2022-08-24T07:03:59.722Z,87.00
2022-08-24T07:07:03.441Z,87.68
2022-08-24T07:10:09.293Z,86.65
2022-08-24T07:13:13.653Z,83.49
2022-08-24T07:16:18.125Z,80.75
2022-08-24T07:19:20.849Z,81.34
2022-08-24T07:22:23.328Z,81.30
2022-08-24T07:25:26.110Z,80.22
2022-08-24T07:28:32.017Z,80.73
2022-08-24T07:31:37.930Z,80.82
2022-08-24T07:34:40.416Z,78.81
2022-08-24T07:37:43.093Z,79.85
2022-08-24T07:41:09.725Z,79.78
2022-08-24T07:44:13.312Z,79.73
2022-08-24T07:47:37.045Z,78.40
2022-08-24T07:50:39.156Z,76.70
2022-08-24T07:53:53.385Z,75.33
2022-08-24T07:56:59.669Z,75.40
2022-08-24T08:00:02.868Z,75.46
2022-08-24T08:03:16.711Z,74.26
2022-08-24T08:06:19.975Z,72.43
2022-08-24T08:09:22.922Z,70.02
2022-08-24T08:12:25.574Z,68.19
2022-08-24T08:15:29.356Z,67.73
2022-08-24T08:18:32.836Z,67.65
2022-08-24T08:22:03.888Z,67.31
2022-08-24T08:25:08.074Z,69.05
2022-08-24T08:28:25.313Z,68.11
2022-08-24T08:31:28.956Z,69.00
2022-08-24T08:34:31.494Z,68.64
2022-08-24T08:41:02.671Z,69.29
2022-08-24T08:44:17.439Z,69.19
2022-08-24T08:47:43.743Z,69.03
2022-08-24T08:50:47.631Z,66.40
2022-08-24T08:54:19.398Z,63.26
2022-08-24T08:58:04.871Z,64.12
2022-08-24T09:01:46.993Z,61.50
2022-08-24T09:05:27.515Z,58.36
2022-08-24T09:08:57.311Z,56.09
2022-08-24T09:12:28.038Z,57.18
2022-08-24T09:15:35.221Z,55.58
2022-08-24T09:18:51.847Z,54.89
2022-08-24T09:22:12.383Z,52.87
2022-08-24T09:25:24.774Z,52.30
2022-08-24T09:28:44.637Z,50.22
2022-08-24T09:32:09.402Z,51.07
2022-08-24T09:35:26.333Z,50.07
2022-08-24T09:38:47.543Z,49.68
2022-08-24T09:42:14.332Z,50.87
2022-08-24T09:45:39.111Z,52.03
2022-08-24T09:48:53.349Z,53.04
2022-08-24T09:52:04.770Z,55.60
2022-08-24T09:55:16.292Z,52.63
2022-08-24T09:58:31.052Z,52.12
2022-08-24T10:01:49.077Z,51.95
2022-08-24T10:05:00.650Z,52.36
2022-08-24T10:08:21.661Z,52.35
2022-08-24T10:11:52.275Z,53.92
2022-08-24T10:15:05.478Z,54.07
2022-08-24T10:18:17.764Z,54.04
2022-08-24T10:21:40.030Z,56.31
2022-08-24T10:25:02.903Z,56.23
2022-08-24T10:28:16.906Z,57.00
2022-08-24T10:31:35.546Z,58.71
2022-08-24T10:35:12.490Z,58.69
2022-08-24T10:38:47.880Z,58.99
2022-08-24T10:42:53.565Z,59.46
2022-08-24T10:46:33.635Z,59.72
2022-08-24T10:50:00.674Z,60.15
2022-08-24T10:53:27.844Z,58.64
2022-08-24T10:57:02.334Z,60.80
2022-08-24T11:00:20.311Z,61.01
2022-08-24T11:03:28.110Z,62.35
2022-08-24T11:06:37.135Z,63.74
2022-08-24T11:09:56.323Z,65.02
2022-08-24T11:13:21.289Z,64.95
2022-08-24T11:16:26.359Z,65.74
2022-08-24T11:19:35.596Z,64.99
2022-08-24T11:22:57.843Z,65.20
2022-08-24T11:26:18.661Z,64.86
2022-08-24T11:29:21.188Z,66.56
2022-08-24T11:32:45.890Z,66.42
2022-08-24T11:35:48.094Z,64.69
2022-08-24T11:39:11.611Z,64.87
2022-08-24T11:42:29.675Z,65.64
2022-08-24T11:45:43.420Z,67.50
2022-08-24T11:48:51.902Z,70.38
2022-08-24T11:52:11.690Z,70.93
2022-08-24T11:55:57.172Z,72.59
2022-08-24T11:59:33.707Z,75.04
2022-08-24T12:02:38.796Z,76.75
2022-08-24T12:05:49.214Z,77.89
2022-08-24T12:09:09.983Z,78.44
2022-08-24T12:12:43.345Z,78.31
2022-08-24T12:16:28.535Z,79.15
2022-08-24T12:19:35.626Z,79.82
2022-08-24T12:22:39.942Z,79.11
2022-08-24T12:26:03.460Z,77.94
2022-08-24T12:29:20.881Z,77.35
2022-08-24T12:32:44.087Z,76.10
2022-08-24T12:35:49.734Z,76.66
2022-08-24T12:39:05.181Z,76.58
2022-08-24T12:42:16.899Z,77.11
2022-08-24T12:45:21.250Z,77.52
2022-08-24T12:48:29.007Z,78.31
2022-08-24T12:51:53.413Z,77.82
2022-08-24T12:55:28.802Z,77.86
2022-08-24T12:58:54.054Z,77.21
2022-08-24T13:02:08.148Z,78.25
2022-08-24T13:05:22.727Z,76.35
2022-08-24T13:08:38.258Z,77.96
2022-08-24T13:11:44.327Z,77.67
2022-08-24T13:14:50.774Z,76.59
2022-08-24T13:18:09.205Z,81.76
2022-08-24T13:21:33.661Z,87.26
2022-08-24T13:24:35.996Z,94.32
2022-08-24T13:27:38.022Z,97.60
2022-08-24T13:31:09.676Z,100.00
2022-08-24T13:34:15.159Z,100.00
2022-08-24T13:37:23.422Z,100.00
2022-08-24T13:40:27.960Z,100.00
2022-08-24T13:43:51.606Z,100.00
2022-08-24T13:47:05.176Z,100.00
2022-08-24T13:50:10.890Z,100.00
2022-08-24T13:53:46.631Z,100.00
2022-08-24T13:57:21.529Z,100.00
2022-08-24T14:00:29.673Z,100.00
2022-08-24T14:04:05.784Z,100.00
2022-08-24T14:07:31.561Z,100.00
2022-08-24T14:10:44.480Z,100.00
2022-08-24T14:14:03.179Z,100.00
2022-08-24T14:17:47.293Z,100.00
2022-08-24T14:20:58.647Z,100.00
2022-08-24T14:24:21.235Z,100.00
2022-08-24T14:27:47.261Z,100.00
2022-08-24T14:31:18.523Z,100.00
2022-08-24T14:34:41.981Z,100.00
2022-08-24T14:38:13.460Z,100.00
2022-08-24T14:41:40.193Z,100.00
2022-08-24T14:44:51.783Z,100.00
2022-08-24T14:48:02.608Z,100.00
2022-08-24T14:51:33.123Z,100.00
2022-08-24T14:55:04.209Z,100.00
2022-08-24T14:58:21.023Z,100.00
2022-08-24T15:01:39.684Z,100.00
2022-08-24T15:04:47.060Z,100.00
2022-08-24T15:07:55.985Z,100.00
2022-08-24T15:11:07.421Z,100.00
2022-08-24T15:14:22.408Z,100.00
2022-08-24T15:17:35.799Z,100.00
2022-08-24T15:20:56.335Z,100.00
2022-08-24T15:24:10.170Z,100.00
2022-08-24T15:27:43.479Z,100.00
2022-08-24T15:30:55.828Z,100.00
2022-08-24T15:34:02.074Z,100.00
2022-08-24T15:37:04.834Z,100.00
2022-08-24T15:40:26.877Z,100.00
2022-08-24T15:43:29.402Z,100.00
2022-08-24T15:46:37.200Z,96.85
2022-08-24T15:49:58.110Z,95.53
2022-08-24T15:53:02.014Z,92.83
2022-08-24T15:56:41.402Z,91.87
2022-08-24T15:59:43.445Z,89.44
2022-08-24T16:02:45.976Z,87.96
2022-08-24T16:05:51.190Z,89.01
2022-08-24T16:09:13.169Z,91.84
2022-08-24T16:12:22.856Z,91.65
2022-08-24T16:15:25.111Z,90.62
2022-08-24T16:18:42.638Z,92.38
2022-08-24T16:22:06.639Z,91.18
2022-08-24T16:25:25.337Z,88.50
2022-08-24T16:28:27.426Z,89.46
2022-08-24T16:31:41.631Z,87.86
2022-08-24T16:34:47.421Z,89.13
2022-08-24T16:37:52.027Z,88.70
2022-08-24T16:40:56.971Z,91.27
2022-08-24T16:43:59.826Z,90.81
2022-08-24T16:47:01.938Z,93.14
2022-08-24T16:50:07.205Z,96.33
2022-08-24T16:53:10.364Z,96.78
2022-08-24T16:56:16.542Z,94.30
2022-08-24T16:59:27.102Z,93.33
2022-08-24T17:02:29.633Z,93.21
2022-08-24T17:05:32.511Z,93.63
2022-08-24T17:08:34.882Z,91.97
2022-08-24T17:11:37.155Z,91.01
2022-08-24T17:14:39.633Z,91.66
2022-08-24T17:17:53.140Z,89.63
2022-08-24T17:20:55.551Z,90.82
2022-08-24T17:23:57.713Z,88.68
2022-08-24T17:27:01.070Z,87.94
2022-08-24T17:30:05.987Z,88.74
2022-08-24T17:33:08.723Z,89.15
2022-08-24T17:36:15.414Z,89.45
2022-08-24T17:39:18.670Z,90.96
2022-08-24T17:42:40.294Z,89.27
2022-08-24T17:45:43.667Z,90.65
2022-08-24T17:48:47.330Z,92.06
2022-08-24T17:51:50.040Z,92.05
2022-08-24T17:54:52.357Z,91.65
2022-08-24T17:57:54.786Z,92.37
2022-08-24T18:00:56.996Z,91.32
2022-08-24T18:03:59.460Z,90.37
2022-08-24T18:07:07.733Z,88.57
2022-08-24T18:10:19.991Z,88.88
2022-08-24T18:13:22.118Z,88.02
2022-08-24T18:16:27.470Z,86.29
2022-08-24T18:19:32.332Z,85.96
2022-08-24T18:22:34.715Z,87.00
2022-08-24T18:25:42.376Z,87.81
2022-08-24T18:28:44.911Z,89.65
2022-08-24T18:31:47.667Z,90.71
2022-08-24T18:34:50.307Z,90.70
2022-08-24T18:37:52.436Z,90.41
2022-08-24T18:40:54.837Z,91.32
2022-08-24T18:43:56.980Z,91.08
2022-08-24T18:46:59.785Z,90.63
2022-08-24T18:50:01.939Z,91.81
2022-08-24T18:53:04.726Z,92.20
2022-08-24T18:56:11.810Z,93.06
2022-08-24T18:59:17.330Z,93.67
2022-08-24T19:02:33.367Z,94.27
2022-08-24T19:05:36.022Z,94.29
2022-08-24T19:08:38.141Z,94.83
2022-08-24T19:11:40.707Z,94.52
2022-08-24T19:14:46.384Z,93.09
2022-08-24T19:17:49.170Z,93.59
2022-08-24T19:20:54.508Z,93.88
2022-08-24T19:23:58.430Z,93.79
2022-08-24T19:27:01.801Z,93.98
2022-08-24T19:30:05.415Z,94.24
2022-08-24T19:33:11.968Z,94.31
2022-08-24T19:36:17.054Z,94.89
2022-08-24T19:39:19.195Z,94.31
2022-08-24T19:42:28.016Z,93.77
2022-08-24T19:45:49.425Z,93.11
2022-08-24T19:48:51.910Z,92.49
2022-08-24T19:51:54.513Z,93.23
2022-08-24T19:54:58.304Z,94.06
2022-08-24T19:58:09.302Z,94.34
2022-08-24T20:01:18.633Z,94.94
2022-08-24T20:04:21.214Z,96.04
2022-08-24T20:07:23.402Z,97.48
2022-08-24T20:10:26.471Z,95.89
2022-08-24T20:13:28.892Z,94.90
2022-08-24T20:16:38.072Z,96.34
2022-08-24T20:19:40.480Z,95.55
2022-08-24T20:22:43.773Z,95.17
2022-08-24T20:25:46.324Z,98.79
2022-08-24T20:28:51.606Z,97.76
2022-08-24T20:31:56.419Z,98.32
2022-08-24T20:34:59.945Z,99.23
2022-08-24T20:38:02.918Z,99.27
2022-08-24T20:41:05.466Z,99.26
2022-08-24T20:44:09.194Z,99.85
2022-08-24T20:47:13.091Z,99.87
2022-08-24T20:50:17.955Z,100.00
2022-08-24T20:53:20.380Z,100.00
2022-08-24T20:56:31.363Z,100.00
2022-08-24T20:59:35.252Z,99.97
2022-08-24T21:02:40.233Z,100.00
2022-08-24T21:05:43.507Z,100.00
2022-08-24T21:08:48.089Z,100.00
2022-08-24T21:11:50.618Z,100.00
2022-08-24T21:14:52.848Z,100.00
2022-08-24T21:17:55.214Z,100.00
2022-08-24T21:21:03.488Z,100.00
2022-08-24T21:24:07.759Z,100.00
2022-08-24T21:27:10.566Z,100.00
2022-08-24T21:30:17.592Z,100.00
2022-08-24T21:33:38.297Z,100.00
2022-08-24T21:36:41.464Z,100.00
2022-08-24T21:39:46.565Z,100.00
2022-08-24T21:42:49.656Z,100.00
2022-08-24T21:45:52.084Z,100.00
2022-08-24T21:48:54.505Z,100.00
2022-08-24T21:51:56.673Z,100.00
2022-08-24T21:54:59.472Z,100.00
2022-08-24T21:58:01.623Z,100.00
2022-08-24T22:01:04.136Z,100.00
2022-08-24T22:04:06.938Z,100.00
2022-08-24T22:07:09.299Z,100.00
2022-08-24T22:10:12.607Z,100.00
2022-08-24T22:13:14.759Z,100.00
2022-08-24T22:16:18.036Z,100.00
2022-08-24T22:19:20.205Z,100.00
2022-08-24T22:22:22.622Z,100.00
2022-08-24T22:25:24.806Z,100.00
2022-08-24T22:28:27.305Z,100.00
2022-08-24T22:31:31.876Z,100.00
2022-08-24T22:34:36.458Z,100.00
2022-08-24T22:37:38.655Z,100.00
2022-08-24T22:40:43.049Z,100.00
2022-08-24T22:44:04.027Z,100.00
2022-08-24T22:47:13.275Z,100.00
2022-08-24T22:50:17.475Z,100.00
2022-08-24T22:53:19.890Z,100.00
2022-08-24T22:56:28.831Z,100.00
2022-08-24T22:59:36.031Z,100.00
2022-08-24T23:02:38.167Z,100.00
2022-08-24T23:05:40.796Z,100.00
2022-08-24T23:08:43.119Z,100.00
2022-08-24T23:11:46.322Z,100.00
2022-08-24T23:14:50.392Z,100.00
2022-08-24T23:17:52.789Z,100.00
2022-08-24T23:20:55.384Z,100.00
2022-08-24T23:23:58.027Z,100.00
2022-08-24T23:27:02.310Z,100.00
2022-08-24T23:30:06.688Z,100.00
2022-08-24T23:33:09.207Z,100.00
2022-08-24T23:36:15.973Z,100.00
2022-08-24T23:39:21.071Z,100.00
2022-08-24T23:42:23.485Z,100.00
2022-08-24T23:45:28.262Z,100.00
2022-08-24T23:48:31.097Z,100.00
2022-08-24T23:51:33.712Z,100.00
2022-08-24T23:54:37.494Z,100.00
2022-08-24T23:57:39.602Z,100.00
